createdAt,value
2018-09-29T13:08:47.862Z,33.60
2018-09-29T13:11:20.634Z,34.30
2018-09-29T13:13:53.401Z,35.10
2018-09-29T13:16:26.290Z,33.90
2018-09-29T13:18:59.086Z,33.10
2018-09-29T13:21:31.902Z,33.40
2018-09-29T13:24:04.838Z,33.10
2018-09-29T13:26:37.572Z,32.50
2018-09-29T13:29:11.535Z,31.60
2018-09-29T13:31:47.902Z,30.70
2018-09-29T13:34:20.831Z,30.50
2018-09-29T13:36:53.642Z,30.50
2018-09-29T13:39:26.440Z,31.50
2018-09-29T13:41:59.250Z,32.50
2018-09-29T13:44:35.494Z,33.40
2018-09-29T13:47:08.330Z,33.60
2018-09-29T13:49:41.106Z,32.70
2018-09-29T13:52:13.834Z,32.30
2018-09-29T13:54:46.738Z,31.90
2018-09-29T13:57:19.638Z,30.80
2018-09-29T13:59:52.505Z,30.90
2018-09-29T14:02:25.418Z,31.30
2018-09-29T14:04:58.186Z,31.20
2018-09-29T14:07:31.021Z,31.00
2018-09-29T14:10:03.799Z,31.10
2018-09-29T14:12:36.730Z,31.20
2018-09-29T14:15:09.636Z,30.90
2018-09-29T14:17:42.719Z,29.40
2018-09-29T14:20:15.618Z,29.30
2018-09-29T14:22:48.386Z,29.20
2018-09-29T14:25:21.169Z,28.80
2018-09-29T14:27:53.973Z,28.50
2018-09-29T14:30:26.790Z,28.00
2018-09-29T14:32:59.487Z,28.30
2018-09-29T14:35:32.289Z,28.80
2018-09-29T14:38:05.087Z,28.50
2018-09-29T14:40:37.909Z,27.60
2018-09-29T14:43:10.729Z,27.20
2018-09-29T14:45:43.512Z,26.90
2018-09-29T14:48:16.317Z,27.10
2018-09-29T14:50:49.134Z,27.00
2018-09-29T14:53:21.906Z,26.20
2018-09-29T14:56:23.571Z,26.10
2018-09-29T14:58:58.050Z,26.70
2018-09-29T15:01:30.802Z,26.90
2018-09-29T15:04:03.691Z,26.70
2018-09-29T15:06:36.650Z,25.60
2018-09-29T15:09:10.641Z,24.50
2018-09-29T15:11:43.434Z,23.10
2018-09-29T15:14:16.255Z,21.70
2018-09-29T15:16:49.397Z,20.90
2018-09-29T15:19:22.254Z,20.80
2018-09-29T15:21:54.982Z,21.40
2018-09-29T15:24:28.063Z,21.70
2018-09-29T15:27:00.880Z,21.50
2018-09-29T15:29:33.661Z,20.70
2018-09-29T15:32:06.603Z,20.40
2018-09-29T15:34:39.421Z,20.10
2018-09-29T15:37:12.162Z,20.40
2018-09-29T15:39:45.161Z,20.80
2018-09-29T15:42:18.056Z,21.20
2018-09-29T15:44:50.879Z,21.50
2018-09-29T15:47:23.778Z,21.20
2018-09-29T15:49:56.878Z,20.70
2018-09-29T15:52:29.827Z,20.30
2018-09-29T15:55:02.730Z,19.60
2018-09-29T15:57:35.622Z,19.00
2018-09-29T16:00:08.502Z,18.30
2018-09-29T16:02:41.410Z,18.00
2018-09-29T16:05:14.289Z,17.70
2018-09-29T16:07:47.011Z,17.30
2018-09-29T16:10:19.758Z,16.90
2018-09-29T16:12:52.507Z,16.50
2018-09-29T16:15:25.330Z,16.50
2018-09-29T16:17:58.148Z,16.60
2018-09-29T16:20:30.841Z,16.60
2018-09-29T16:23:03.700Z,16.50
2018-09-29T16:25:36.461Z,16.30
2018-09-29T16:28:09.234Z,15.80
2018-09-29T16:30:42.007Z,15.00
2018-09-29T16:33:14.874Z,14.30
2018-09-29T16:35:47.870Z,13.70
2018-09-29T16:38:20.643Z,13.30
2018-09-29T16:40:53.436Z,13.00
2018-09-29T16:43:26.340Z,12.70
2018-09-29T16:45:59.146Z,12.40
2018-09-29T16:48:32.037Z,12.20
2018-09-29T16:51:04.858Z,12.00
2018-09-29T16:53:37.854Z,11.80
2018-09-29T16:56:10.550Z,11.60
2018-09-29T16:58:43.427Z,11.40
2018-09-29T17:01:16.189Z,11.20
2018-09-29T17:03:49.226Z,11.10
2018-09-29T17:06:22.171Z,10.90
2018-09-29T17:08:54.947Z,10.80
2018-09-29T17:11:27.977Z,10.70
2018-09-29T17:14:00.858Z,10.60
2018-09-29T17:16:33.999Z,10.50
2018-09-29T17:19:07.032Z,10.40
2018-09-29T17:21:39.843Z,10.30
2018-09-29T17:24:12.635Z,10.30
2018-09-29T17:26:45.444Z,10.20
2018-09-29T17:29:18.246Z,10.20
2018-09-29T17:31:51.023Z,10.10
2018-09-29T17:34:23.926Z,10.10
2018-09-29T17:36:56.689Z,10.00
2018-09-29T17:39:29.510Z,10.00
2018-09-29T17:42:02.561Z,9.90
2018-09-29T17:44:35.699Z,9.90
2018-09-29T17:47:08.585Z,9.90
2018-09-29T17:49:41.433Z,9.80
2018-09-29T17:52:14.171Z,9.70
2018-09-29T17:54:47.113Z,9.80
2018-09-29T17:57:20.157Z,9.70
2018-09-29T17:59:53.061Z,9.70
2018-09-29T18:02:25.758Z,9.70
2018-09-29T18:04:59.093Z,9.60
2018-09-29T18:07:31.971Z,9.50
2018-09-29T18:10:04.730Z,9.50
2018-09-29T18:12:37.690Z,9.50
2018-09-29T18:15:10.462Z,9.60
2018-09-29T18:17:43.447Z,9.50
2018-09-29T18:20:16.398Z,9.50
2018-09-29T18:22:49.106Z,9.40
2018-09-29T18:25:21.885Z,9.50
2018-09-29T18:27:54.832Z,9.40
2018-09-29T18:30:27.705Z,9.30
2018-09-29T18:33:00.422Z,9.30
2018-09-29T18:35:33.251Z,9.10
2018-09-29T18:38:06.050Z,9.10
2018-09-29T18:40:39.074Z,9.00
2018-09-29T18:43:11.951Z,9.00
2018-09-29T18:45:44.950Z,9.00
2018-09-29T18:48:17.702Z,8.90
2018-09-29T18:50:50.406Z,8.80
2018-09-29T18:53:23.319Z,8.80
2018-09-29T18:55:56.233Z,8.80
2018-09-29T18:58:29.041Z,8.80
2018-09-29T19:01:01.742Z,8.70
2018-09-29T19:03:34.689Z,8.70
2018-09-29T19:06:07.688Z,8.60
2018-09-29T19:08:40.637Z,8.60
2018-09-29T19:11:13.544Z,8.50
2018-09-29T19:13:46.334Z,8.50
2018-09-29T19:16:19.053Z,8.50
2018-09-29T19:18:51.863Z,8.40
2018-09-29T19:21:24.530Z,8.50
2018-09-29T19:23:57.622Z,8.50
2018-09-29T19:26:30.734Z,8.50
2018-09-29T19:29:03.603Z,8.50
2018-09-29T19:31:36.463Z,8.50
2018-09-29T19:34:09.223Z,8.60
2018-09-29T19:36:42.017Z,8.60
2018-09-29T19:39:14.818Z,8.60
2018-09-29T19:41:47.537Z,8.60
2018-09-29T19:44:20.359Z,8.60
2018-09-29T19:46:53.257Z,8.60
2018-09-29T19:49:26.028Z,8.60
2018-09-29T19:51:58.842Z,8.60
2018-09-29T19:54:31.753Z,8.50
2018-09-29T19:57:04.452Z,8.40
2018-09-29T19:59:37.313Z,8.30
2018-09-29T20:02:10.062Z,8.30
2018-09-29T20:04:42.887Z,8.20
2018-09-29T20:07:15.683Z,8.10
2018-09-29T20:09:48.483Z,8.10
2018-09-29T20:12:21.205Z,8.00
2018-09-29T20:14:53.934Z,8.00
2018-09-29T20:17:26.774Z,7.90
2018-09-29T20:19:59.780Z,7.90
2018-09-29T20:22:32.714Z,7.80
2018-09-29T20:25:05.521Z,7.80
2018-09-29T20:27:38.270Z,7.70
2018-09-29T20:30:11.063Z,7.70
2018-09-29T20:32:43.955Z,7.60
2018-09-29T20:35:16.681Z,7.60
2018-09-29T20:37:49.490Z,7.50
2018-09-29T20:40:22.341Z,7.50
2018-09-29T20:42:55.138Z,7.50
2018-09-29T20:45:27.926Z,7.50
2018-09-29T20:48:00.839Z,7.40
2018-09-29T20:50:33.952Z,7.40
2018-09-29T20:53:06.658Z,7.40
2018-09-29T20:55:39.422Z,7.40
2018-09-29T20:58:12.301Z,7.40
2018-09-29T21:00:45.142Z,7.40
2018-09-29T21:03:18.010Z,7.30
2018-09-29T21:05:50.757Z,7.30
2018-09-29T21:08:23.707Z,7.30
2018-09-29T21:10:56.603Z,7.30
2018-09-29T21:13:29.622Z,7.30
2018-09-29T21:16:02.398Z,7.30
2018-09-29T21:18:35.162Z,7.30
2018-09-29T21:21:07.910Z,7.30
2018-09-29T21:23:40.838Z,7.20
2018-09-29T21:26:13.616Z,7.10
2018-09-29T21:28:46.414Z,7.10
2018-09-29T21:31:19.221Z,7.10
2018-09-29T21:33:52.213Z,7.10
2018-09-29T21:36:25.047Z,7.10
2018-09-29T21:38:57.962Z,7.00
2018-09-29T21:41:30.801Z,7.00
2018-09-29T21:44:03.602Z,7.00
2018-09-29T21:46:36.365Z,7.00
2018-09-29T21:49:09.241Z,7.00
2018-09-29T21:51:42.110Z,7.00
2018-09-29T21:54:14.903Z,6.90
2018-09-29T21:56:47.770Z,6.90
2018-09-29T21:59:20.678Z,7.00
2018-09-29T22:01:53.410Z,6.90
2018-09-29T22:04:26.272Z,6.90
2018-09-29T22:06:59.122Z,6.80
2018-09-29T22:09:32.154Z,6.70
2018-09-29T22:12:04.910Z,6.70
2018-09-29T22:14:37.657Z,6.70
2018-09-29T22:17:10.462Z,6.70
2018-09-29T22:19:43.378Z,6.80
2018-09-29T22:22:16.178Z,6.70
2018-09-29T22:24:48.932Z,6.70
2018-09-29T22:27:21.771Z,6.70
2018-09-29T22:29:54.565Z,6.80
2018-09-29T22:32:27.317Z,6.70
2018-09-29T22:35:00.079Z,6.70
2018-09-29T22:37:32.809Z,6.70
2018-09-29T22:40:05.610Z,6.60
2018-09-29T22:42:38.550Z,6.60
2018-09-29T22:45:11.416Z,6.60
2018-09-29T22:47:44.178Z,6.50
2018-09-29T22:50:16.982Z,6.40
2018-09-29T22:52:49.689Z,6.30
2018-09-29T22:55:22.398Z,6.30
2018-09-29T22:57:55.173Z,6.20
2018-09-29T23:00:27.917Z,6.20
2018-09-29T23:03:00.701Z,6.20
2018-09-29T23:05:33.505Z,6.20
2018-09-29T23:08:06.294Z,6.10
2018-09-29T23:10:39.013Z,6.10
2018-09-29T23:13:11.786Z,6.10
2018-09-29T23:15:44.658Z,6.10
2018-09-29T23:18:17.382Z,6.10
2018-09-29T23:20:50.150Z,6.00
2018-09-29T23:23:23.046Z,6.00
2018-09-29T23:25:56.011Z,5.90
2018-09-29T23:28:28.782Z,5.90
2018-09-29T23:31:01.738Z,5.90
2018-09-29T23:33:34.481Z,5.90
2018-09-29T23:36:07.195Z,5.80
2018-09-29T23:38:39.922Z,5.80
2018-09-29T23:41:12.615Z,5.80
2018-09-29T23:43:45.469Z,5.80
2018-09-29T23:46:18.219Z,5.80
2018-09-29T23:48:51.037Z,5.80
2018-09-29T23:51:23.827Z,5.70
2018-09-29T23:53:56.762Z,5.70
2018-09-29T23:56:29.610Z,5.70
2018-09-29T23:59:02.381Z,5.70
